Terminal Aerodrome Forecast
Issued by NWS Albany, NY

Home | Current Version | Previous Version | Text Only | Print | Product List | Glossary On
Versions: 1 2 3 4 5 6 7 8 9 10 11 12 13
000
FTUS41 KALY 292321
TAFPOU
TAF
KPOU 292321Z 3000/3024 00000KT P6SM SCT250
     FM300700 00000KT P6SM SCT050 SCT200
     FM301300 25003KT P6SM SCT090 BKN150
     FM301800 25005KT P6SM SCT050 SCT120=

USA.gov is the U.S. government's official web portal to all federal, state and local government web resources and services.